sensor_id;sensor_type;location;lat;lon;timestamp;temperature;humidity
51733;DHT22;39139;53.144;6.244;2022-10-14T00:00:13;11.70;99.90
51733;DHT22;39139;53.144;6.244;2022-10-14T00:02:39;11.40;99.90
51733;DHT22;39139;53.144;6.244;2022-10-14T00:05:05;11.90;99.90
51733;DHT22;39139;53.144;6.244;2022-10-14T00:07:31;11.50;99.90
51733;DHT22;39139;53.144;6.244;2022-10-14T00:09:56;11.80;99.90
51733;DHT22;39139;53.144;6.244;2022-10-14T00:12:22;11.90;99.90
51733;DHT22;39139;53.144;6.244;2022-10-14T00:14:47;11.70;99.90
51733;DHT22;39139;53.144;6.244;2022-10-14T00:17:13;11.70;99.90
51733;DHT22;39139;53.144;6.244;2022-10-14T00:19:39;11.50;99.90
51733;DHT22;39139;53.144;6.244;2022-10-14T00:22:04;11.40;99.90
51733;DHT22;39139;53.144;6.244;2022-10-14T00:24:30;11.70;99.90
51733;DHT22;39139;53.144;6.244;2022-10-14T00:26:56;11.60;99.90
51733;DHT22;39139;53.144;6.244;2022-10-14T00:29:21;11.30;99.90
51733;DHT22;39139;53.144;6.244;2022-10-14T00:31:47;11.50;99.90
51733;DHT22;39139;53.144;6.244;2022-10-14T00:34:13;11.70;99.90
51733;DHT22;39139;53.144;6.244;2022-10-14T00:36:41;11.50;99.90
51733;DHT22;39139;53.144;6.244;2022-10-14T00:39:07;11.30;99.90
51733;DHT22;39139;53.144;6.244;2022-10-14T00:41:34;11.30;99.90
51733;DHT22;39139;53.144;6.244;2022-10-14T00:44:07;11.40;99.90
51733;DHT22;39139;53.144;6.244;2022-10-14T00:46:51;11.30;99.90
51733;DHT22;39139;53.144;6.244;2022-10-14T00:49:27;11.20;99.90
51733;DHT22;39139;53.144;6.244;2022-10-14T00:52:03;11.60;99.90
51733;DHT22;39139;53.144;6.244;2022-10-14T00:54:47;11.20;99.90
51733;DHT22;39139;53.144;6.244;2022-10-14T00:57:14;12.10;99.90
51733;DHT22;39139;53.144;6.244;2022-10-14T00:59:40;11.20;99.90
51733;DHT22;39139;53.144;6.244;2022-10-14T01:02:06;11.40;99.90
51733;DHT22;39139;53.144;6.244;2022-10-14T01:04:34;10.90;99.90
51733;DHT22;39139;53.144;6.244;2022-10-14T01:10:08;11.30;99.90
51733;DHT22;39139;53.144;6.244;2022-10-14T01:12:55;11.20;99.90
51733;DHT22;39139;53.144;6.244;2022-10-14T01:23:51;11.00;99.90
51733;DHT22;39139;53.144;6.244;2022-10-14T01:32:12;10.80;99.90
51733;DHT22;39139;53.144;6.244;2022-10-14T01:34:50;10.90;99.90
51733;DHT22;39139;53.144;6.244;2022-10-14T01:37:22;11.00;99.90
51733;DHT22;39139;53.144;6.244;2022-10-14T01:39:56;10.80;99.90
51733;DHT22;39139;53.144;6.244;2022-10-14T01:42:26;10.80;99.90
51733;DHT22;39139;53.144;6.244;2022-10-14T01:44:57;10.90;99.90
51733;DHT22;39139;53.144;6.244;2022-10-14T01:47:25;10.80;99.90
51733;DHT22;39139;53.144;6.244;2022-10-14T01:49:56;10.80;99.90
51733;DHT22;39139;53.144;6.244;2022-10-14T01:52:26;10.90;99.90
51733;DHT22;39139;53.144;6.244;2022-10-14T01:54:58;11.40;99.90
51733;DHT22;39139;53.144;6.244;2022-10-14T01:57:28;10.80;99.90
51733;DHT22;39139;53.144;6.244;2022-10-14T01:59:55;11.50;99.90
51733;DHT22;39139;53.144;6.244;2022-10-14T02:02:22;11.10;99.90
51733;DHT22;39139;53.144;6.244;2022-10-14T02:04:49;10.90;99.90
51733;DHT22;39139;53.144;6.244;2022-10-14T02:07:45;10.80;99.90
51733;DHT22;39139;53.144;6.244;2022-10-14T02:10:43;10.50;99.90
51733;DHT22;39139;53.144;6.244;2022-10-14T02:18:39;10.50;99.90
51733;DHT22;39139;53.144;6.244;2022-10-14T02:23:59;10.50;99.90
51733;DHT22;39139;53.144;6.244;2022-10-14T02:26:27;10.80;99.90
51733;DHT22;39139;53.144;6.244;2022-10-14T02:28:55;10.80;99.90
51733;DHT22;39139;53.144;6.244;2022-10-14T02:31:24;10.50;99.90
51733;DHT22;39139;53.144;6.244;2022-10-14T02:33:55;10.70;99.90
51733;DHT22;39139;53.144;6.244;2022-10-14T02:36:24;11.00;99.90
51733;DHT22;39139;53.144;6.244;2022-10-14T02:38:52;10.50;99.90
51733;DHT22;39139;53.144;6.244;2022-10-14T02:41:22;10.90;99.90
51733;DHT22;39139;53.144;6.244;2022-10-14T02:43:49;11.10;99.90
51733;DHT22;39139;53.144;6.244;2022-10-14T02:46:19;10.40;99.90
51733;DHT22;39139;53.144;6.244;2022-10-14T02:48:45;10.70;99.90
51733;DHT22;39139;53.144;6.244;2022-10-14T02:51:11;10.60;99.90
51733;DHT22;39139;53.144;6.244;2022-10-14T02:53:36;10.60;99.90
51733;DHT22;39139;53.144;6.244;2022-10-14T02:56:02;10.60;99.90
51733;DHT22;39139;53.144;6.244;2022-10-14T02:58:28;10.80;99.90
51733;DHT22;39139;53.144;6.244;2022-10-14T03:00:53;10.70;99.90
51733;DHT22;39139;53.144;6.244;2022-10-14T03:03:19;10.60;99.90
51733;DHT22;39139;53.144;6.244;2022-10-14T03:05:45;10.90;99.90
51733;DHT22;39139;53.144;6.244;2022-10-14T03:08:10;11.00;99.90
51733;DHT22;39139;53.144;6.244;2022-10-14T03:10:36;10.50;99.90
51733;DHT22;39139;53.144;6.244;2022-10-14T03:13:01;10.70;99.90
51733;DHT22;39139;53.144;6.244;2022-10-14T03:15:28;10.70;99.90
51733;DHT22;39139;53.144;6.244;2022-10-14T03:17:54;11.20;99.90
51733;DHT22;39139;53.144;6.244;2022-10-14T03:20:19;10.40;99.90
51733;DHT22;39139;53.144;6.244;2022-10-14T03:22:45;10.50;99.90
51733;DHT22;39139;53.144;6.244;2022-10-14T03:25:14;10.70;99.90
51733;DHT22;39139;53.144;6.244;2022-10-14T03:27:39;10.30;99.90
51733;DHT22;39139;53.144;6.244;2022-10-14T03:30:06;10.50;99.90
51733;DHT22;39139;53.144;6.244;2022-10-14T03:32:31;10.30;99.90
51733;DHT22;39139;53.144;6.244;2022-10-14T03:34:57;10.40;99.90
51733;DHT22;39139;53.144;6.244;2022-10-14T03:37:23;10.40;99.90
51733;DHT22;39139;53.144;6.244;2022-10-14T03:39:49;10.50;99.90
51733;DHT22;39139;53.144;6.244;2022-10-14T03:42:15;10.30;99.90
51733;DHT22;39139;53.144;6.244;2022-10-14T03:44:40;10.30;99.90
51733;DHT22;39139;53.144;6.244;2022-10-14T03:47:06;10.40;99.90
51733;DHT22;39139;53.144;6.244;2022-10-14T03:49:32;10.40;99.90
51733;DHT22;39139;53.144;6.244;2022-10-14T03:51:57;10.20;99.90
51733;DHT22;39139;53.144;6.244;2022-10-14T03:54:23;10.30;99.90
51733;DHT22;39139;53.144;6.244;2022-10-14T03:56:49;10.60;99.90
51733;DHT22;39139;53.144;6.244;2022-10-14T03:59:15;10.30;99.90
51733;DHT22;39139;53.144;6.244;2022-10-14T04:01:42;10.10;99.90
51733;DHT22;39139;53.144;6.244;2022-10-14T04:04:07;9.90;99.90
51733;DHT22;39139;53.144;6.244;2022-10-14T04:06:33;10.10;99.90
51733;DHT22;39139;53.144;6.244;2022-10-14T04:08:58;10.00;99.90
51733;DHT22;39139;53.144;6.244;2022-10-14T04:11:24;10.00;99.90
51733;DHT22;39139;53.144;6.244;2022-10-14T04:13:50;10.30;99.90
51733;DHT22;39139;53.144;6.244;2022-10-14T04:16:15;10.20;99.90
51733;DHT22;39139;53.144;6.244;2022-10-14T04:18:41;10.40;99.90
51733;DHT22;39139;53.144;6.244;2022-10-14T04:21:11;10.10;99.90
51733;DHT22;39139;53.144;6.244;2022-10-14T04:23:36;10.20;99.90
51733;DHT22;39139;53.144;6.244;2022-10-14T04:26:03;10.40;99.90
51733;DHT22;39139;53.144;6.244;2022-10-14T04:28:30;10.20;99.90
51733;DHT22;39139;53.144;6.244;2022-10-14T04:30:56;10.10;99.90
51733;DHT22;39139;53.144;6.244;2022-10-14T04:33:22;10.00;99.90
51733;DHT22;39139;53.144;6.244;2022-10-14T04:35:48;9.90;99.90
51733;DHT22;39139;53.144;6.244;2022-10-14T04:38:14;10.10;99.90
51733;DHT22;39139;53.144;6.244;2022-10-14T04:40:43;10.10;99.90
51733;DHT22;39139;53.144;6.244;2022-10-14T04:43:09;10.00;99.90
51733;DHT22;39139;53.144;6.244;2022-10-14T04:45:34;9.70;99.90
51733;DHT22;39139;53.144;6.244;2022-10-14T04:48:00;9.90;99.90
51733;DHT22;39139;53.144;6.244;2022-10-14T04:50:26;9.70;99.90
51733;DHT22;39139;53.144;6.244;2022-10-14T04:52:51;9.70;99.90
51733;DHT22;39139;53.144;6.244;2022-10-14T04:55:17;10.10;99.90
51733;DHT22;39139;53.144;6.244;2022-10-14T04:57:43;10.10;99.90
51733;DHT22;39139;53.144;6.244;2022-10-14T05:00:10;9.80;99.90
51733;DHT22;39139;53.144;6.244;2022-10-14T05:02:36;9.80;99.90
51733;DHT22;39139;53.144;6.244;2022-10-14T05:05:03;9.90;99.90
51733;DHT22;39139;53.144;6.244;2022-10-14T05:07:29;9.80;99.90
51733;DHT22;39139;53.144;6.244;2022-10-14T05:09:55;10.00;99.90
51733;DHT22;39139;53.144;6.244;2022-10-14T05:12:21;10.20;99.90
51733;DHT22;39139;53.144;6.244;2022-10-14T05:14:47;9.70;99.90
51733;DHT22;39139;53.144;6.244;2022-10-14T05:17:13;9.70;99.90
51733;DHT22;39139;53.144;6.244;2022-10-14T05:19:39;9.80;99.90
51733;DHT22;39139;53.144;6.244;2022-10-14T05:22:04;9.80;99.90
51733;DHT22;39139;53.144;6.244;2022-10-14T05:24:30;9.80;99.90
51733;DHT22;39139;53.144;6.244;2022-10-14T05:26:55;10.00;99.90
51733;DHT22;39139;53.144;6.244;2022-10-14T05:29:21;10.20;99.90
51733;DHT22;39139;53.144;6.244;2022-10-14T05:31:47;10.10;99.90
51733;DHT22;39139;53.144;6.244;2022-10-14T05:34:12;10.40;99.90
51733;DHT22;39139;53.144;6.244;2022-10-14T05:36:38;9.80;99.90
51733;DHT22;39139;53.144;6.244;2022-10-14T05:39:06;9.80;99.90
51733;DHT22;39139;53.144;6.244;2022-10-14T05:41:32;8.70;99.90
51733;DHT22;39139;53.144;6.244;2022-10-14T05:43:58;9.80;99.90
51733;DHT22;39139;53.144;6.244;2022-10-14T05:46:23;10.00;99.90
51733;DHT22;39139;53.144;6.244;2022-10-14T05:48:49;9.60;99.90
51733;DHT22;39139;53.144;6.244;2022-10-14T05:51:15;10.00;99.90
51733;DHT22;39139;53.144;6.244;2022-10-14T05:53:41;9.90;99.90
51733;DHT22;39139;53.144;6.244;2022-10-14T05:56:08;10.10;99.90
51733;DHT22;39139;53.144;6.244;2022-10-14T05:58:34;10.10;99.90
51733;DHT22;39139;53.144;6.244;2022-10-14T06:01:01;10.00;99.90
51733;DHT22;39139;53.144;6.244;2022-10-14T06:03:27;10.20;99.90
51733;DHT22;39139;53.144;6.244;2022-10-14T06:05:53;9.90;99.90
51733;DHT22;39139;53.144;6.244;2022-10-14T06:08:19;10.10;99.90
51733;DHT22;39139;53.144;6.244;2022-10-14T06:10:44;10.40;99.90
51733;DHT22;39139;53.144;6.244;2022-10-14T06:13:10;9.90;99.90
51733;DHT22;39139;53.144;6.244;2022-10-14T06:15:36;10.60;99.90
51733;DHT22;39139;53.144;6.244;2022-10-14T06:18:02;10.40;99.90
51733;DHT22;39139;53.144;6.244;2022-10-14T06:20:28;9.90;99.90
51733;DHT22;39139;53.144;6.244;2022-10-14T06:22:54;9.90;99.90
51733;DHT22;39139;53.144;6.244;2022-10-14T06:25:19;9.90;99.90
51733;DHT22;39139;53.144;6.244;2022-10-14T06:27:45;10.00;99.90
51733;DHT22;39139;53.144;6.244;2022-10-14T06:30:11;10.20;99.90
51733;DHT22;39139;53.144;6.244;2022-10-14T06:32:37;9.80;99.90
51733;DHT22;39139;53.144;6.244;2022-10-14T06:35:03;10.00;99.90
51733;DHT22;39139;53.144;6.244;2022-10-14T06:37:28;9.90;99.90
51733;DHT22;39139;53.144;6.244;2022-10-14T06:39:54;10.10;99.90
51733;DHT22;39139;53.144;6.244;2022-10-14T06:42:20;9.90;99.90
51733;DHT22;39139;53.144;6.244;2022-10-14T06:44:45;10.30;99.90
51733;DHT22;39139;53.144;6.244;2022-10-14T06:47:11;10.10;99.90
51733;DHT22;39139;53.144;6.244;2022-10-14T06:49:36;10.10;99.90
51733;DHT22;39139;53.144;6.244;2022-10-14T06:52:02;10.10;99.90
51733;DHT22;39139;53.144;6.244;2022-10-14T06:54:28;10.20;99.90
51733;DHT22;39139;53.144;6.244;2022-10-14T06:56:54;10.50;99.90
51733;DHT22;39139;53.144;6.244;2022-10-14T06:59:19;10.00;99.90
51733;DHT22;39139;53.144;6.244;2022-10-14T07:01:45;10.30;99.90
51733;DHT22;39139;53.144;6.244;2022-10-14T07:04:10;10.30;99.90
51733;DHT22;39139;53.144;6.244;2022-10-14T07:06:37;10.10;99.90
51733;DHT22;39139;53.144;6.244;2022-10-14T07:09:03;10.10;99.90
51733;DHT22;39139;53.144;6.244;2022-10-14T07:11:29;10.60;99.90
51733;DHT22;39139;53.144;6.244;2022-10-14T07:13:55;10.30;99.90
51733;DHT22;39139;53.144;6.244;2022-10-14T07:16:21;10.20;99.90
51733;DHT22;39139;53.144;6.244;2022-10-14T07:18:47;10.50;99.90
51733;DHT22;39139;53.144;6.244;2022-10-14T07:21:13;10.60;99.90
51733;DHT22;39139;53.144;6.244;2022-10-14T07:23:39;10.60;99.90
51733;DHT22;39139;53.144;6.244;2022-10-14T07:26:04;10.50;99.90
51733;DHT22;39139;53.144;6.244;2022-10-14T07:28:30;10.60;99.90
51733;DHT22;39139;53.144;6.244;2022-10-14T07:31:03;10.30;99.90
51733;DHT22;39139;53.144;6.244;2022-10-14T07:33:29;10.50;99.90
51733;DHT22;39139;53.144;6.244;2022-10-14T07:36:00;10.70;99.90
51733;DHT22;39139;53.144;6.244;2022-10-14T07:38:26;10.80;99.90
51733;DHT22;39139;53.144;6.244;2022-10-14T07:41:00;10.50;99.90
51733;DHT22;39139;53.144;6.244;2022-10-14T07:43:26;10.90;99.90
51733;DHT22;39139;53.144;6.244;2022-10-14T07:45:52;10.50;99.90
51733;DHT22;39139;53.144;6.244;2022-10-14T07:48:26;10.70;99.90
51733;DHT22;39139;53.144;6.244;2022-10-14T07:50:52;10.90;99.90
51733;DHT22;39139;53.144;6.244;2022-10-14T07:55:45;10.60;99.90
51733;DHT22;39139;53.144;6.244;2022-10-14T07:58:19;10.80;99.90
51733;DHT22;39139;53.144;6.244;2022-10-14T08:00:45;10.70;99.90
51733;DHT22;39139;53.144;6.244;2022-10-14T08:03:11;10.80;99.90
51733;DHT22;39139;53.144;6.244;2022-10-14T08:05:36;10.70;99.90
51733;DHT22;39139;53.144;6.244;2022-10-14T08:08:02;10.90;99.90
51733;DHT22;39139;53.144;6.244;2022-10-14T08:10:28;11.10;99.90
51733;DHT22;39139;53.144;6.244;2022-10-14T08:12:54;11.10;99.90
51733;DHT22;39139;53.144;6.244;2022-10-14T08:15:22;11.00;99.90
51733;DHT22;39139;53.144;6.244;2022-10-14T08:17:47;11.00;99.90
51733;DHT22;39139;53.144;6.244;2022-10-14T08:20:13;11.10;99.90
51733;DHT22;39139;53.144;6.244;2022-10-14T08:22:38;11.20;99.90
51733;DHT22;39139;53.144;6.244;2022-10-14T08:25:04;11.20;99.90
51733;DHT22;39139;53.144;6.244;2022-10-14T08:27:30;11.30;99.90
51733;DHT22;39139;53.144;6.244;2022-10-14T08:29:56;11.30;99.90
51733;DHT22;39139;53.144;6.244;2022-10-14T08:32:21;11.30;99.90
51733;DHT22;39139;53.144;6.244;2022-10-14T08:34:47;11.20;99.90
51733;DHT22;39139;53.144;6.244;2022-10-14T08:37:13;11.30;99.90
51733;DHT22;39139;53.144;6.244;2022-10-14T08:39:38;11.10;99.90
51733;DHT22;39139;53.144;6.244;2022-10-14T08:44:53;11.40;99.90
51733;DHT22;39139;53.144;6.244;2022-10-14T08:47:23;11.20;99.90
51733;DHT22;39139;53.144;6.244;2022-10-14T08:50:15;11.50;99.90
51733;DHT22;39139;53.144;6.244;2022-10-14T08:52:47;11.50;99.90
51733;DHT22;39139;53.144;6.244;2022-10-14T08:55:48;11.30;99.90
51733;DHT22;39139;53.144;6.244;2022-10-14T08:58:23;11.30;99.90
51733;DHT22;39139;53.144;6.244;2022-10-14T09:00:52;11.50;99.90
51733;DHT22;39139;53.144;6.244;2022-10-14T09:03:21;11.40;99.90
51733;DHT22;39139;53.144;6.244;2022-10-14T09:05:59;11.30;99.90
51733;DHT22;39139;53.144;6.244;2022-10-14T09:08:49;11.20;99.90
51733;DHT22;39139;53.144;6.244;2022-10-14T09:11:19;11.30;99.90
51733;DHT22;39139;53.144;6.244;2022-10-14T09:13:52;11.40;99.90
51733;DHT22;39139;53.144;6.244;2022-10-14T09:16:33;11.60;99.90
51733;DHT22;39139;53.144;6.244;2022-10-14T09:19:29;11.60;99.90
51733;DHT22;39139;53.144;6.244;2022-10-14T09:21:56;11.80;99.90
51733;DHT22;39139;53.144;6.244;2022-10-14T09:24:29;11.60;99.90
51733;DHT22;39139;53.144;6.244;2022-10-14T09:27:16;11.60;99.90
51733;DHT22;39139;53.144;6.244;2022-10-14T09:32:51;11.90;99.90
51733;DHT22;39139;53.144;6.244;2022-10-14T09:37:51;11.80;99.90
51733;DHT22;39139;53.144;6.244;2022-10-14T09:40:29;12.00;99.90
51733;DHT22;39139;53.144;6.244;2022-10-14T09:48:41;12.00;99.90
51733;DHT22;39139;53.144;6.244;2022-10-14T09:51:10;11.80;99.90
51733;DHT22;39139;53.144;6.244;2022-10-14T09:53:49;11.90;99.90
51733;DHT22;39139;53.144;6.244;2022-10-14T09:56:30;12.10;99.90
51733;DHT22;39139;53.144;6.244;2022-10-14T09:58:57;11.80;99.90
51733;DHT22;39139;53.144;6.244;2022-10-14T10:01:25;11.90;99.90
51733;DHT22;39139;53.144;6.244;2022-10-14T10:03:53;12.10;99.90
51733;DHT22;39139;53.144;6.244;2022-10-14T10:06:24;12.20;99.90
51733;DHT22;39139;53.144;6.244;2022-10-14T10:11:29;12.00;99.90
51733;DHT22;39139;53.144;6.244;2022-10-14T10:13:55;12.30;99.90
51733;DHT22;39139;53.144;6.244;2022-10-14T10:18:51;12.40;99.90
51733;DHT22;39139;53.144;6.244;2022-10-14T10:21:37;12.20;99.90
51733;DHT22;39139;53.144;6.244;2022-10-14T10:24:11;12.40;99.90
51733;DHT22;39139;53.144;6.244;2022-10-14T10:26:41;12.30;99.90
51733;DHT22;39139;53.144;6.244;2022-10-14T10:29:25;12.30;99.90
51733;DHT22;39139;53.144;6.244;2022-10-14T10:32:06;12.30;99.90
51733;DHT22;39139;53.144;6.244;2022-10-14T10:34:59;12.40;99.90
51733;DHT22;39139;53.144;6.244;2022-10-14T10:37:30;12.60;99.90
51733;DHT22;39139;53.144;6.244;2022-10-14T10:43:12;12.60;99.90
51733;DHT22;39139;53.144;6.244;2022-10-14T10:46:06;12.60;99.90
51733;DHT22;39139;53.144;6.244;2022-10-14T11:00:16;12.60;99.90
51733;DHT22;39139;53.144;6.244;2022-10-14T11:08:38;12.60;99.90
51733;DHT22;39139;53.144;6.244;2022-10-14T11:11:27;12.80;99.90
51733;DHT22;39139;53.144;6.244;2022-10-14T11:14:45;12.60;99.90
51733;DHT22;39139;53.144;6.244;2022-10-14T11:17:24;12.70;99.90
51733;DHT22;39139;53.144;6.244;2022-10-14T11:20:22;12.70;99.90
51733;DHT22;39139;53.144;6.244;2022-10-14T11:23:24;12.80;99.90
51733;DHT22;39139;53.144;6.244;2022-10-14T11:32:10;13.10;99.90
51733;DHT22;39139;53.144;6.244;2022-10-14T11:34:56;13.10;99.90
51733;DHT22;39139;53.144;6.244;2022-10-14T11:46:10;13.00;99.90
51733;DHT22;39139;53.144;6.244;2022-10-14T11:49:21;13.30;99.90
51733;DHT22;39139;53.144;6.244;2022-10-14T11:51:56;13.20;99.90
51733;DHT22;39139;53.144;6.244;2022-10-14T11:54:44;13.00;99.90
51733;DHT22;39139;53.144;6.244;2022-10-14T12:00:00;13.00;99.90
51733;DHT22;39139;53.144;6.244;2022-10-14T12:02:41;13.30;99.90
51733;DHT22;39139;53.144;6.244;2022-10-14T12:05:17;13.10;99.90
51733;DHT22;39139;53.144;6.244;2022-10-14T12:10:36;13.00;99.90
51733;DHT22;39139;53.144;6.244;2022-10-14T12:13:04;13.30;99.90
51733;DHT22;39139;53.144;6.244;2022-10-14T12:15:36;13.10;99.90
51733;DHT22;39139;53.144;6.244;2022-10-14T12:18:04;13.00;99.90
51733;DHT22;39139;53.144;6.244;2022-10-14T12:20:34;13.10;99.90
51733;DHT22;39139;53.144;6.244;2022-10-14T12:23:05;13.30;99.90
51733;DHT22;39139;53.144;6.244;2022-10-14T12:25:44;13.00;99.90
51733;DHT22;39139;53.144;6.244;2022-10-14T12:28:13;13.10;99.90
51733;DHT22;39139;53.144;6.244;2022-10-14T12:30:41;13.30;99.90
51733;DHT22;39139;53.144;6.244;2022-10-14T12:33:08;13.00;99.90
51733;DHT22;39139;53.144;6.244;2022-10-14T12:35:56;13.30;99.90
51733;DHT22;39139;53.144;6.244;2022-10-14T12:38:25;13.30;99.90
51733;DHT22;39139;53.144;6.244;2022-10-14T12:40:52;13.10;99.90
51733;DHT22;39139;53.144;6.244;2022-10-14T12:43:27;13.20;99.90
51733;DHT22;39139;53.144;6.244;2022-10-14T12:46:11;13.10;99.90
51733;DHT22;39139;53.144;6.244;2022-10-14T12:48:44;13.30;99.90
51733;DHT22;39139;53.144;6.244;2022-10-14T12:51:20;13.30;99.90
51733;DHT22;39139;53.144;6.244;2022-10-14T12:56:37;13.10;99.90
51733;DHT22;39139;53.144;6.244;2022-10-14T12:59:06;13.30;99.90
51733;DHT22;39139;53.144;6.244;2022-10-14T13:01:33;13.20;99.90
51733;DHT22;39139;53.144;6.244;2022-10-14T13:04:02;13.40;99.90
51733;DHT22;39139;53.144;6.244;2022-10-14T13:06:36;13.20;99.90
51733;DHT22;39139;53.144;6.244;2022-10-14T13:11:38;13.30;99.90
51733;DHT22;39139;53.144;6.244;2022-10-14T13:21:57;13.40;99.90
51733;DHT22;39139;53.144;6.244;2022-10-14T13:24:28;13.50;99.90
51733;DHT22;39139;53.144;6.244;2022-10-14T13:37:55;13.40;99.90
51733;DHT22;39139;53.144;6.244;2022-10-14T13:40:26;13.50;99.90
51733;DHT22;39139;53.144;6.244;2022-10-14T13:42:57;13.50;99.90
51733;DHT22;39139;53.144;6.244;2022-10-14T13:45:52;13.50;99.90
51733;DHT22;39139;53.144;6.244;2022-10-14T13:48:53;13.60;99.90
51733;DHT22;39139;53.144;6.244;2022-10-14T13:51:58;13.70;99.90
51733;DHT22;39139;53.144;6.244;2022-10-14T13:54:27;13.80;99.90
51733;DHT22;39139;53.144;6.244;2022-10-14T13:57:13;13.70;99.90
51733;DHT22;39139;53.144;6.244;2022-10-14T13:59:44;13.60;99.90
51733;DHT22;39139;53.144;6.244;2022-10-14T14:04:38;13.90;99.90
51733;DHT22;39139;53.144;6.244;2022-10-14T14:07:04;13.90;99.90
51733;DHT22;39139;53.144;6.244;2022-10-14T14:09:31;14.10;99.90
51733;DHT22;39139;53.144;6.244;2022-10-14T14:12:02;13.70;99.90
51733;DHT22;39139;53.144;6.244;2022-10-14T14:14:36;13.80;99.90
51733;DHT22;39139;53.144;6.244;2022-10-14T14:17:04;14.10;99.90
51733;DHT22;39139;53.144;6.244;2022-10-14T14:19:33;14.00;99.90
51733;DHT22;39139;53.144;6.244;2022-10-14T14:22:11;13.80;99.90
51733;DHT22;39139;53.144;6.244;2022-10-14T14:24:38;14.50;99.90
51733;DHT22;39139;53.144;6.244;2022-10-14T14:27:03;14.00;99.90
51733;DHT22;39139;53.144;6.244;2022-10-14T14:29:34;14.10;99.90
51733;DHT22;39139;53.144;6.244;2022-10-14T14:32:00;14.00;99.90
51733;DHT22;39139;53.144;6.244;2022-10-14T14:34:28;14.00;99.90
51733;DHT22;39139;53.144;6.244;2022-10-14T14:36:56;14.00;99.90
51733;DHT22;39139;53.144;6.244;2022-10-14T14:39:28;14.00;99.90
51733;DHT22;39139;53.144;6.244;2022-10-14T14:41:56;14.30;99.90
51733;DHT22;39139;53.144;6.244;2022-10-14T14:44:25;14.10;99.90
51733;DHT22;39139;53.144;6.244;2022-10-14T14:46:52;14.40;99.90
51733;DHT22;39139;53.144;6.244;2022-10-14T14:49:25;14.40;99.90
51733;DHT22;39139;53.144;6.244;2022-10-14T14:51:51;14.20;99.90
51733;DHT22;39139;53.144;6.244;2022-10-14T14:54:19;14.40;99.90
51733;DHT22;39139;53.144;6.244;2022-10-14T14:56:46;14.30;99.90
51733;DHT22;39139;53.144;6.244;2022-10-14T15:01:54;14.30;99.90
51733;DHT22;39139;53.144;6.244;2022-10-14T15:04:23;14.30;99.90
51733;DHT22;39139;53.144;6.244;2022-10-14T15:07:06;14.10;99.90
51733;DHT22;39139;53.144;6.244;2022-10-14T15:09:37;14.20;99.90
51733;DHT22;39139;53.144;6.244;2022-10-14T15:12:27;14.10;99.90
51733;DHT22;39139;53.144;6.244;2022-10-14T15:14:59;14.40;99.90
51733;DHT22;39139;53.144;6.244;2022-10-14T15:17:29;14.40;99.90
51733;DHT22;39139;53.144;6.244;2022-10-14T15:19:57;14.30;99.90
51733;DHT22;39139;53.144;6.244;2022-10-14T15:22:42;14.20;99.90
51733;DHT22;39139;53.144;6.244;2022-10-14T15:25:29;14.00;99.90
51733;DHT22;39139;53.144;6.244;2022-10-14T15:27:59;14.40;99.90
51733;DHT22;39139;53.144;6.244;2022-10-14T15:30:31;14.10;99.90
51733;DHT22;39139;53.144;6.244;2022-10-14T15:33:20;14.20;99.90
51733;DHT22;39139;53.144;6.244;2022-10-14T15:36:00;14.10;99.90
51733;DHT22;39139;53.144;6.244;2022-10-14T15:38:27;14.40;99.90
51733;DHT22;39139;53.144;6.244;2022-10-14T15:40:53;14.10;99.90
51733;DHT22;39139;53.144;6.244;2022-10-14T15:43:23;14.40;99.90
51733;DHT22;39139;53.144;6.244;2022-10-14T15:45:51;14.40;99.90
51733;DHT22;39139;53.144;6.244;2022-10-14T15:48:45;14.10;99.90
51733;DHT22;39139;53.144;6.244;2022-10-14T15:51:15;14.10;99.90
51733;DHT22;39139;53.144;6.244;2022-10-14T15:53:41;14.40;99.90
51733;DHT22;39139;53.144;6.244;2022-10-14T15:56:06;14.30;99.90
51733;DHT22;39139;53.144;6.244;2022-10-14T15:58:33;14.10;99.90
51733;DHT22;39139;53.144;6.244;2022-10-14T16:01:00;14.30;99.90
51733;DHT22;39139;53.144;6.244;2022-10-14T16:03:27;14.10;99.90
51733;DHT22;39139;53.144;6.244;2022-10-14T16:05:52;14.10;99.90
51733;DHT22;39139;53.144;6.244;2022-10-14T16:08:18;14.30;99.90
51733;DHT22;39139;53.144;6.244;2022-10-14T16:10:44;14.10;99.90
51733;DHT22;39139;53.144;6.244;2022-10-14T16:13:12;14.30;99.90
51733;DHT22;39139;53.144;6.244;2022-10-14T16:18:07;14.30;99.90
51733;DHT22;39139;53.144;6.244;2022-10-14T16:20:33;14.20;99.90
51733;DHT22;39139;53.144;6.244;2022-10-14T16:22:59;14.30;99.90
51733;DHT22;39139;53.144;6.244;2022-10-14T16:25:36;14.10;99.90
51733;DHT22;39139;53.144;6.244;2022-10-14T16:28:08;14.10;99.90
51733;DHT22;39139;53.144;6.244;2022-10-14T16:30:36;14.20;99.90
51733;DHT22;39139;53.144;6.244;2022-10-14T16:33:02;14.20;99.90
51733;DHT22;39139;53.144;6.244;2022-10-14T16:35:28;14.10;99.90
51733;DHT22;39139;53.144;6.244;2022-10-14T16:37:54;14.30;99.90
51733;DHT22;39139;53.144;6.244;2022-10-14T16:40:21;14.10;99.90
51733;DHT22;39139;53.144;6.244;2022-10-14T16:42:46;14.20;99.90
51733;DHT22;39139;53.144;6.244;2022-10-14T16:45:13;14.30;99.90
51733;DHT22;39139;53.144;6.244;2022-10-14T16:47:39;14.20;99.90
51733;DHT22;39139;53.144;6.244;2022-10-14T16:50:07;14.00;99.90
51733;DHT22;39139;53.144;6.244;2022-10-14T16:52:34;14.10;99.90
51733;DHT22;39139;53.144;6.244;2022-10-14T16:55:18;14.00;99.90
51733;DHT22;39139;53.144;6.244;2022-10-14T16:57:44;14.20;99.90
51733;DHT22;39139;53.144;6.244;2022-10-14T17:00:11;14.20;99.90
51733;DHT22;39139;53.144;6.244;2022-10-14T17:02:37;14.20;99.90
51733;DHT22;39139;53.144;6.244;2022-10-14T17:05:03;14.10;99.90
51733;DHT22;39139;53.144;6.244;2022-10-14T17:07:28;14.00;99.90
51733;DHT22;39139;53.144;6.244;2022-10-14T17:09:54;14.20;99.90
51733;DHT22;39139;53.144;6.244;2022-10-14T17:12:20;14.20;99.90
51733;DHT22;39139;53.144;6.244;2022-10-14T17:14:45;14.10;99.90
51733;DHT22;39139;53.144;6.244;2022-10-14T17:17:11;14.10;99.90
51733;DHT22;39139;53.144;6.244;2022-10-14T17:19:37;14.00;99.90
51733;DHT22;39139;53.144;6.244;2022-10-14T17:22:03;13.90;99.90
51733;DHT22;39139;53.144;6.244;2022-10-14T17:24:29;14.20;99.90
51733;DHT22;39139;53.144;6.244;2022-10-14T17:26:55;14.10;99.90
51733;DHT22;39139;53.144;6.244;2022-10-14T17:29:21;14.00;99.90
51733;DHT22;39139;53.144;6.244;2022-10-14T17:31:46;13.80;99.90
51733;DHT22;39139;53.144;6.244;2022-10-14T17:34:12;14.10;99.90
51733;DHT22;39139;53.144;6.244;2022-10-14T17:36:39;13.80;99.90
51733;DHT22;39139;53.144;6.244;2022-10-14T17:39:06;14.00;99.90
51733;DHT22;39139;53.144;6.244;2022-10-14T17:41:32;13.90;99.90
51733;DHT22;39139;53.144;6.244;2022-10-14T17:43:59;14.10;99.90
51733;DHT22;39139;53.144;6.244;2022-10-14T17:46:26;13.80;99.90
51733;DHT22;39139;53.144;6.244;2022-10-14T17:48:55;13.70;99.90